sensor_id;sensor_type;location;lat;lon;timestamp;temperature;humidity
19755;DHT22;10036;47.812;9.274;2022-12-29T00:00:13;2.10;99.90
19755;DHT22;10036;47.812;9.274;2022-12-29T00:02:40;2.10;99.90
19755;DHT22;10036;47.812;9.274;2022-12-29T00:05:07;2.30;99.90
19755;DHT22;10036;47.812;9.274;2022-12-29T00:07:35;2.30;99.90
19755;DHT22;10036;47.812;9.274;2022-12-29T00:10:04;2.40;99.90
19755;DHT22;10036;47.812;9.274;2022-12-29T00:12:31;2.40;99.90
19755;DHT22;10036;47.812;9.274;2022-12-29T00:15:12;2.30;99.90
19755;DHT22;10036;47.812;9.274;2022-12-29T00:17:56;2.40;99.90
19755;DHT22;10036;47.812;9.274;2022-12-29T00:20:23;2.40;99.90
19755;DHT22;10036;47.812;9.274;2022-12-29T00:23:08;2.50;99.90
19755;DHT22;10036;47.812;9.274;2022-12-29T00:25:55;2.30;99.90
19755;DHT22;10036;47.812;9.274;2022-12-29T00:28:40;2.30;99.90
19755;DHT22;10036;47.812;9.274;2022-12-29T00:31:24;2.40;99.90
19755;DHT22;10036;47.812;9.274;2022-12-29T00:34:10;2.50;99.90
19755;DHT22;10036;47.812;9.274;2022-12-29T00:36:55;2.40;99.90
19755;DHT22;10036;47.812;9.274;2022-12-29T00:39:22;2.40;99.90
19755;DHT22;10036;47.812;9.274;2022-12-29T00:42:09;2.30;99.90
19755;DHT22;10036;47.812;9.274;2022-12-29T00:44:58;2.40;99.90
19755;DHT22;10036;47.812;9.274;2022-12-29T00:47:25;2.40;99.90
19755;DHT22;10036;47.812;9.274;2022-12-29T00:49:52;2.30;99.90
19755;DHT22;10036;47.812;9.274;2022-12-29T00:52:18;2.40;99.90
19755;DHT22;10036;47.812;9.274;2022-12-29T00:54:45;2.30;99.90
19755;DHT22;10036;47.812;9.274;2022-12-29T00:57:13;2.30;99.90
19755;DHT22;10036;47.812;9.274;2022-12-29T00:59:41;2.30;99.90
19755;DHT22;10036;47.812;9.274;2022-12-29T01:02:09;2.40;99.90
19755;DHT22;10036;47.812;9.274;2022-12-29T01:04:36;2.30;99.90
19755;DHT22;10036;47.812;9.274;2022-12-29T01:07:04;2.40;99.90
19755;DHT22;10036;47.812;9.274;2022-12-29T01:09:31;2.30;99.90
19755;DHT22;10036;47.812;9.274;2022-12-29T01:12:18;2.40;99.90
19755;DHT22;10036;47.812;9.274;2022-12-29T01:15:06;2.40;99.90
19755;DHT22;10036;47.812;9.274;2022-12-29T01:17:33;2.40;99.90
19755;DHT22;10036;47.812;9.274;2022-12-29T01:20:00;2.50;99.90
19755;DHT22;10036;47.812;9.274;2022-12-29T01:22:27;2.50;99.90
19755;DHT22;10036;47.812;9.274;2022-12-29T01:24:54;2.50;99.90
19755;DHT22;10036;47.812;9.274;2022-12-29T01:27:23;2.50;99.90
19755;DHT22;10036;47.812;9.274;2022-12-29T01:29:49;2.50;99.90
19755;DHT22;10036;47.812;9.274;2022-12-29T01:32:16;2.50;99.90
19755;DHT22;10036;47.812;9.274;2022-12-29T01:34:43;2.40;99.90
19755;DHT22;10036;47.812;9.274;2022-12-29T01:37:10;2.40;99.90
19755;DHT22;10036;47.812;9.274;2022-12-29T01:39:37;2.50;99.90
19755;DHT22;10036;47.812;9.274;2022-12-29T01:42:04;2.40;99.90
19755;DHT22;10036;47.812;9.274;2022-12-29T01:44:57;2.40;99.90
19755;DHT22;10036;47.812;9.274;2022-12-29T01:47:30;2.60;99.90
19755;DHT22;10036;47.812;9.274;2022-12-29T01:50:01;2.70;99.90
19755;DHT22;10036;47.812;9.274;2022-12-29T01:52:32;2.70;99.90
19755;DHT22;10036;47.812;9.274;2022-12-29T01:55:02;2.60;99.90
19755;DHT22;10036;47.812;9.274;2022-12-29T01:57:31;2.70;99.90
19755;DHT22;10036;47.812;9.274;2022-12-29T02:00:05;2.70;99.90
19755;DHT22;10036;47.812;9.274;2022-12-29T02:02:34;2.70;99.90
19755;DHT22;10036;47.812;9.274;2022-12-29T02:05:05;2.70;99.90
19755;DHT22;10036;47.812;9.274;2022-12-29T02:07:34;2.70;99.90
19755;DHT22;10036;47.812;9.274;2022-12-29T02:10:01;2.80;99.90
19755;DHT22;10036;47.812;9.274;2022-12-29T02:12:29;2.80;99.90
19755;DHT22;10036;47.812;9.274;2022-12-29T02:15:01;2.90;99.90
19755;DHT22;10036;47.812;9.274;2022-12-29T02:17:39;2.90;99.90
19755;DHT22;10036;47.812;9.274;2022-12-29T02:20:32;2.90;99.90
19755;DHT22;10036;47.812;9.274;2022-12-29T02:23:30;2.90;99.90
19755;DHT22;10036;47.812;9.274;2022-12-29T02:26:40;2.90;99.90
19755;DHT22;10036;47.812;9.274;2022-12-29T02:29:55;3.00;99.90
19755;DHT22;10036;47.812;9.274;2022-12-29T02:32:30;3.10;99.90
19755;DHT22;10036;47.812;9.274;2022-12-29T02:35:08;3.20;99.90
19755;DHT22;10036;47.812;9.274;2022-12-29T02:37:41;3.10;99.90
19755;DHT22;10036;47.812;9.274;2022-12-29T02:40:16;3.30;99.90
19755;DHT22;10036;47.812;9.274;2022-12-29T02:42:49;3.60;99.90
19755;DHT22;10036;47.812;9.274;2022-12-29T02:45:21;3.50;99.90
19755;DHT22;10036;47.812;9.274;2022-12-29T02:47:54;3.60;99.90
19755;DHT22;10036;47.812;9.274;2022-12-29T02:50:26;3.70;99.90
19755;DHT22;10036;47.812;9.274;2022-12-29T02:52:58;3.80;99.90
19755;DHT22;10036;47.812;9.274;2022-12-29T02:55:26;3.90;99.90
19755;DHT22;10036;47.812;9.274;2022-12-29T02:58:13;3.80;99.90
19755;DHT22;10036;47.812;9.274;2022-12-29T03:03:44;3.80;99.90
19755;DHT22;10036;47.812;9.274;2022-12-29T03:06:30;3.80;99.90
19755;DHT22;10036;47.812;9.274;2022-12-29T03:09:05;3.70;99.90
19755;DHT22;10036;47.812;9.274;2022-12-29T03:11:41;3.60;99.90
19755;DHT22;10036;47.812;9.274;2022-12-29T03:14:33;3.70;99.90
19755;DHT22;10036;47.812;9.274;2022-12-29T03:17:25;3.50;99.90
19755;DHT22;10036;47.812;9.274;2022-12-29T03:19:59;3.60;99.90
19755;DHT22;10036;47.812;9.274;2022-12-29T03:22:29;3.70;99.90
19755;DHT22;10036;47.812;9.274;2022-12-29T03:25:02;3.70;99.90
19755;DHT22;10036;47.812;9.274;2022-12-29T03:27:32;3.60;99.90
19755;DHT22;10036;47.812;9.274;2022-12-29T03:30:03;3.60;99.90
19755;DHT22;10036;47.812;9.274;2022-12-29T03:32:33;3.90;99.90
19755;DHT22;10036;47.812;9.274;2022-12-29T03:35:03;4.00;99.90
19755;DHT22;10036;47.812;9.274;2022-12-29T03:37:35;4.00;99.90
19755;DHT22;10036;47.812;9.274;2022-12-29T03:40:04;4.10;99.90
19755;DHT22;10036;47.812;9.274;2022-12-29T03:42:33;4.20;99.90
19755;DHT22;10036;47.812;9.274;2022-12-29T03:45:01;4.30;99.90
19755;DHT22;10036;47.812;9.274;2022-12-29T03:47:30;4.30;99.90
19755;DHT22;10036;47.812;9.274;2022-12-29T03:49:57;4.40;99.90
19755;DHT22;10036;47.812;9.274;2022-12-29T03:52:25;4.40;99.90
19755;DHT22;10036;47.812;9.274;2022-12-29T03:54:52;4.30;99.90
19755;DHT22;10036;47.812;9.274;2022-12-29T03:57:19;4.30;99.90
19755;DHT22;10036;47.812;9.274;2022-12-29T03:59:46;4.60;99.90
19755;DHT22;10036;47.812;9.274;2022-12-29T04:02:13;4.60;99.90
19755;DHT22;10036;47.812;9.274;2022-12-29T04:04:40;4.80;99.90
19755;DHT22;10036;47.812;9.274;2022-12-29T04:07:07;4.80;99.90
19755;DHT22;10036;47.812;9.274;2022-12-29T04:09:35;4.70;99.90
19755;DHT22;10036;47.812;9.274;2022-12-29T04:12:02;4.80;99.90
19755;DHT22;10036;47.812;9.274;2022-12-29T04:14:29;4.90;99.90
19755;DHT22;10036;47.812;9.274;2022-12-29T04:16:56;5.00;99.90
19755;DHT22;10036;47.812;9.274;2022-12-29T04:19:23;5.30;99.90
19755;DHT22;10036;47.812;9.274;2022-12-29T04:21:50;5.20;99.90
19755;DHT22;10036;47.812;9.274;2022-12-29T04:24:17;5.30;99.90
19755;DHT22;10036;47.812;9.274;2022-12-29T04:26:45;5.30;99.90
19755;DHT22;10036;47.812;9.274;2022-12-29T04:29:12;5.30;99.90
19755;DHT22;10036;47.812;9.274;2022-12-29T04:31:39;5.50;99.90
19755;DHT22;10036;47.812;9.274;2022-12-29T04:34:06;5.50;99.90
19755;DHT22;10036;47.812;9.274;2022-12-29T04:36:33;5.50;99.90
19755;DHT22;10036;47.812;9.274;2022-12-29T04:39:00;5.50;99.90
19755;DHT22;10036;47.812;9.274;2022-12-29T04:41:27;5.40;99.90
19755;DHT22;10036;47.812;9.274;2022-12-29T04:43:55;5.50;99.90
19755;DHT22;10036;47.812;9.274;2022-12-29T04:46:22;5.50;99.90
19755;DHT22;10036;47.812;9.274;2022-12-29T04:48:49;5.50;99.90
19755;DHT22;10036;47.812;9.274;2022-12-29T04:51:16;5.60;99.90
19755;DHT22;10036;47.812;9.274;2022-12-29T04:53:43;5.70;99.90
19755;DHT22;10036;47.812;9.274;2022-12-29T04:56:10;5.70;99.90
19755;DHT22;10036;47.812;9.274;2022-12-29T04:58:37;5.80;99.90
19755;DHT22;10036;47.812;9.274;2022-12-29T05:01:05;5.80;99.90
19755;DHT22;10036;47.812;9.274;2022-12-29T05:03:32;5.90;99.90
19755;DHT22;10036;47.812;9.274;2022-12-29T05:05:59;5.90;99.90
19755;DHT22;10036;47.812;9.274;2022-12-29T05:08:26;6.00;99.90
19755;DHT22;10036;47.812;9.274;2022-12-29T05:10:53;6.20;99.90
19755;DHT22;10036;47.812;9.274;2022-12-29T05:13:20;6.10;99.90
19755;DHT22;10036;47.812;9.274;2022-12-29T05:15:49;6.10;99.90
19755;DHT22;10036;47.812;9.274;2022-12-29T05:18:18;6.00;99.90
19755;DHT22;10036;47.812;9.274;2022-12-29T05:20:46;6.10;99.90
19755;DHT22;10036;47.812;9.274;2022-12-29T05:23:13;6.10;99.90
19755;DHT22;10036;47.812;9.274;2022-12-29T05:25:41;6.10;99.90
19755;DHT22;10036;47.812;9.274;2022-12-29T05:28:07;6.10;99.90
19755;DHT22;10036;47.812;9.274;2022-12-29T05:30:34;6.20;99.90
19755;DHT22;10036;47.812;9.274;2022-12-29T05:33:01;6.00;99.90
19755;DHT22;10036;47.812;9.274;2022-12-29T05:35:29;6.10;99.90
19755;DHT22;10036;47.812;9.274;2022-12-29T05:37:56;6.10;99.90
19755;DHT22;10036;47.812;9.274;2022-12-29T05:40:23;6.10;99.90
19755;DHT22;10036;47.812;9.274;2022-12-29T05:42:50;6.10;99.90
19755;DHT22;10036;47.812;9.274;2022-12-29T05:45:17;6.10;99.90
19755;DHT22;10036;47.812;9.274;2022-12-29T05:47:44;6.20;99.90
19755;DHT22;10036;47.812;9.274;2022-12-29T05:50:11;6.20;99.90
19755;DHT22;10036;47.812;9.274;2022-12-29T05:52:39;6.30;99.90
19755;DHT22;10036;47.812;9.274;2022-12-29T05:55:07;6.20;99.90
19755;DHT22;10036;47.812;9.274;2022-12-29T05:57:34;6.30;99.90
19755;DHT22;10036;47.812;9.274;2022-12-29T06:00:01;6.30;99.90
19755;DHT22;10036;47.812;9.274;2022-12-29T06:02:28;6.30;99.90
19755;DHT22;10036;47.812;9.274;2022-12-29T06:04:55;6.40;99.90
19755;DHT22;10036;47.812;9.274;2022-12-29T06:07:22;6.60;99.90
19755;DHT22;10036;47.812;9.274;2022-12-29T06:09:50;6.50;99.90
19755;DHT22;10036;47.812;9.274;2022-12-29T06:12:17;6.50;99.90
19755;DHT22;10036;47.812;9.274;2022-12-29T06:14:44;6.60;99.90
19755;DHT22;10036;47.812;9.274;2022-12-29T06:17:11;6.60;99.90
19755;DHT22;10036;47.812;9.274;2022-12-29T06:19:38;6.50;99.90
19755;DHT22;10036;47.812;9.274;2022-12-29T06:22:05;6.40;99.90
19755;DHT22;10036;47.812;9.274;2022-12-29T06:24:32;6.40;99.90
19755;DHT22;10036;47.812;9.274;2022-12-29T06:27:01;6.40;99.90
19755;DHT22;10036;47.812;9.274;2022-12-29T06:29:27;6.40;99.90
19755;DHT22;10036;47.812;9.274;2022-12-29T06:31:54;6.30;99.90
19755;DHT22;10036;47.812;9.274;2022-12-29T06:34:23;6.30;99.90
19755;DHT22;10036;47.812;9.274;2022-12-29T06:36:50;6.30;99.90
19755;DHT22;10036;47.812;9.274;2022-12-29T06:39:17;6.20;99.90
19755;DHT22;10036;47.812;9.274;2022-12-29T06:41:44;6.10;99.90
19755;DHT22;10036;47.812;9.274;2022-12-29T06:44:12;6.10;99.90
19755;DHT22;10036;47.812;9.274;2022-12-29T06:46:39;6.00;99.90
19755;DHT22;10036;47.812;9.274;2022-12-29T06:49:06;6.00;99.90
19755;DHT22;10036;47.812;9.274;2022-12-29T06:51:33;5.90;99.90
19755;DHT22;10036;47.812;9.274;2022-12-29T06:53:59;6.00;99.90
19755;DHT22;10036;47.812;9.274;2022-12-29T06:56:26;6.00;99.90
19755;DHT22;10036;47.812;9.274;2022-12-29T06:58:53;5.90;99.90
19755;DHT22;10036;47.812;9.274;2022-12-29T07:01:22;6.00;99.90
19755;DHT22;10036;47.812;9.274;2022-12-29T07:03:49;5.90;99.90
19755;DHT22;10036;47.812;9.274;2022-12-29T07:06:15;5.80;99.90
19755;DHT22;10036;47.812;9.274;2022-12-29T07:08:42;5.80;99.90
19755;DHT22;10036;47.812;9.274;2022-12-29T07:11:10;5.90;99.90
19755;DHT22;10036;47.812;9.274;2022-12-29T07:13:37;5.90;99.90
19755;DHT22;10036;47.812;9.274;2022-12-29T07:16:08;6.00;99.90
19755;DHT22;10036;47.812;9.274;2022-12-29T07:18:37;6.00;99.90
19755;DHT22;10036;47.812;9.274;2022-12-29T07:21:04;5.90;99.90
19755;DHT22;10036;47.812;9.274;2022-12-29T07:23:31;5.90;99.90
19755;DHT22;10036;47.812;9.274;2022-12-29T07:25:59;6.00;99.90
19755;DHT22;10036;47.812;9.274;2022-12-29T07:28:26;5.90;99.90
19755;DHT22;10036;47.812;9.274;2022-12-29T07:30:53;5.80;99.90
19755;DHT22;10036;47.812;9.274;2022-12-29T07:33:20;5.90;99.90
19755;DHT22;10036;47.812;9.274;2022-12-29T07:35:50;6.00;99.90
19755;DHT22;10036;47.812;9.274;2022-12-29T07:38:17;6.00;99.90
19755;DHT22;10036;47.812;9.274;2022-12-29T07:40:44;6.00;99.90
19755;DHT22;10036;47.812;9.274;2022-12-29T07:43:11;6.10;99.90
19755;DHT22;10036;47.812;9.274;2022-12-29T07:45:38;6.10;99.90
19755;DHT22;10036;47.812;9.274;2022-12-29T07:48:05;6.20;99.90
19755;DHT22;10036;47.812;9.274;2022-12-29T07:50:34;6.20;99.90
19755;DHT22;10036;47.812;9.274;2022-12-29T07:53:03;6.30;99.90
19755;DHT22;10036;47.812;9.274;2022-12-29T07:55:30;6.40;99.90
19755;DHT22;10036;47.812;9.274;2022-12-29T07:57:57;6.70;99.90
19755;DHT22;10036;47.812;9.274;2022-12-29T08:00:23;6.90;99.90
19755;DHT22;10036;47.812;9.274;2022-12-29T08:02:50;7.00;99.90
19755;DHT22;10036;47.812;9.274;2022-12-29T08:05:20;7.10;99.90
19755;DHT22;10036;47.812;9.274;2022-12-29T08:07:47;7.20;99.90
19755;DHT22;10036;47.812;9.274;2022-12-29T08:10:17;7.30;99.90
19755;DHT22;10036;47.812;9.274;2022-12-29T08:12:44;7.50;99.90
19755;DHT22;10036;47.812;9.274;2022-12-29T08:15:11;7.50;99.90
19755;DHT22;10036;47.812;9.274;2022-12-29T08:17:38;7.60;99.90
19755;DHT22;10036;47.812;9.274;2022-12-29T08:20:06;7.60;99.90
19755;DHT22;10036;47.812;9.274;2022-12-29T08:22:33;7.60;99.90
19755;DHT22;10036;47.812;9.274;2022-12-29T08:25:00;7.70;99.90
19755;DHT22;10036;47.812;9.274;2022-12-29T08:27:28;7.70;99.90
19755;DHT22;10036;47.812;9.274;2022-12-29T08:29:55;7.70;99.90
19755;DHT22;10036;47.812;9.274;2022-12-29T08:32:22;7.80;99.90
19755;DHT22;10036;47.812;9.274;2022-12-29T08:34:49;7.80;99.90
19755;DHT22;10036;47.812;9.274;2022-12-29T08:37:16;7.80;99.90
19755;DHT22;10036;47.812;9.274;2022-12-29T08:39:43;7.90;99.90
19755;DHT22;10036;47.812;9.274;2022-12-29T08:42:09;7.80;99.90
19755;DHT22;10036;47.812;9.274;2022-12-29T08:44:38;7.80;99.90
19755;DHT22;10036;47.812;9.274;2022-12-29T08:47:05;7.90;99.90
19755;DHT22;10036;47.812;9.274;2022-12-29T08:49:31;7.80;99.90
19755;DHT22;10036;47.812;9.274;2022-12-29T08:51:58;8.00;99.90
19755;DHT22;10036;47.812;9.274;2022-12-29T08:54:25;7.90;99.90
19755;DHT22;10036;47.812;9.274;2022-12-29T08:56:52;7.80;99.90
19755;DHT22;10036;47.812;9.274;2022-12-29T08:59:19;7.80;99.90
19755;DHT22;10036;47.812;9.274;2022-12-29T09:01:47;7.80;99.90
19755;DHT22;10036;47.812;9.274;2022-12-29T09:04:14;7.80;99.90
19755;DHT22;10036;47.812;9.274;2022-12-29T09:06:42;7.80;99.90
19755;DHT22;10036;47.812;9.274;2022-12-29T09:09:09;7.90;99.90
19755;DHT22;10036;47.812;9.274;2022-12-29T09:11:36;7.90;99.90
19755;DHT22;10036;47.812;9.274;2022-12-29T09:14:03;7.80;99.90
19755;DHT22;10036;47.812;9.274;2022-12-29T09:16:30;7.90;99.90
19755;DHT22;10036;47.812;9.274;2022-12-29T09:18:58;7.90;99.90
19755;DHT22;10036;47.812;9.274;2022-12-29T09:21:25;8.00;99.90
19755;DHT22;10036;47.812;9.274;2022-12-29T09:23:52;8.00;99.90
19755;DHT22;10036;47.812;9.274;2022-12-29T09:26:19;8.20;99.90
19755;DHT22;10036;47.812;9.274;2022-12-29T09:28:46;8.10;99.90
19755;DHT22;10036;47.812;9.274;2022-12-29T09:31:13;8.20;99.90
19755;DHT22;10036;47.812;9.274;2022-12-29T09:33:42;8.20;99.90
19755;DHT22;10036;47.812;9.274;2022-12-29T09:36:10;8.20;99.90
19755;DHT22;10036;47.812;9.274;2022-12-29T09:38:37;8.20;99.90
19755;DHT22;10036;47.812;9.274;2022-12-29T09:41:10;8.30;99.90
19755;DHT22;10036;47.812;9.274;2022-12-29T09:43:50;8.30;99.90
19755;DHT22;10036;47.812;9.274;2022-12-29T09:46:24;8.40;99.90
19755;DHT22;10036;47.812;9.274;2022-12-29T09:48:55;8.50;99.90
19755;DHT22;10036;47.812;9.274;2022-12-29T09:51:25;8.60;99.90
19755;DHT22;10036;47.812;9.274;2022-12-29T09:53:57;8.70;99.90
19755;DHT22;10036;47.812;9.274;2022-12-29T09:56:25;8.70;99.90
19755;DHT22;10036;47.812;9.274;2022-12-29T09:58:58;8.70;99.90
19755;DHT22;10036;47.812;9.274;2022-12-29T10:01:30;8.80;99.90
19755;DHT22;10036;47.812;9.274;2022-12-29T10:03:58;8.80;99.90
19755;DHT22;10036;47.812;9.274;2022-12-29T10:06:32;8.80;99.90
19755;DHT22;10036;47.812;9.274;2022-12-29T10:09:06;8.90;99.90
19755;DHT22;10036;47.812;9.274;2022-12-29T10:11:52;9.00;99.90
19755;DHT22;10036;47.812;9.274;2022-12-29T10:14:32;9.00;99.90
19755;DHT22;10036;47.812;9.274;2022-12-29T10:17:10;9.00;99.90
19755;DHT22;10036;47.812;9.274;2022-12-29T10:20:02;9.00;99.90
19755;DHT22;10036;47.812;9.274;2022-12-29T10:22:48;9.10;99.90
19755;DHT22;10036;47.812;9.274;2022-12-29T10:25:23;9.20;99.90
19755;DHT22;10036;47.812;9.274;2022-12-29T10:27:52;9.20;99.90
19755;DHT22;10036;47.812;9.274;2022-12-29T10:30:20;9.30;99.90
19755;DHT22;10036;47.812;9.274;2022-12-29T10:32:50;9.30;99.90
19755;DHT22;10036;47.812;9.274;2022-12-29T10:35:21;9.20;99.90
19755;DHT22;10036;47.812;9.274;2022-12-29T10:37:53;9.30;99.90
19755;DHT22;10036;47.812;9.274;2022-12-29T10:40:26;9.30;99.90
19755;DHT22;10036;47.812;9.274;2022-12-29T10:42:55;9.50;99.90
19755;DHT22;10036;47.812;9.274;2022-12-29T10:45:26;9.50;99.90
19755;DHT22;10036;47.812;9.274;2022-12-29T10:47:59;9.60;99.90
19755;DHT22;10036;47.812;9.274;2022-12-29T10:50:27;9.60;99.90
19755;DHT22;10036;47.812;9.274;2022-12-29T10:52:58;9.70;99.90
19755;DHT22;10036;47.812;9.274;2022-12-29T10:55:29;9.80;99.90
19755;DHT22;10036;47.812;9.274;2022-12-29T10:58:02;9.70;99.90
19755;DHT22;10036;47.812;9.274;2022-12-29T11:00:31;9.70;99.90
19755;DHT22;10036;47.812;9.274;2022-12-29T11:06:10;9.80;99.90
19755;DHT22;10036;47.812;9.274;2022-12-29T11:08:53;9.80;99.90
19755;DHT22;10036;47.812;9.274;2022-12-29T11:11:25;9.90;99.90
19755;DHT22;10036;47.812;9.274;2022-12-29T11:13:57;9.90;99.90
19755;DHT22;10036;47.812;9.274;2022-12-29T11:16:30;9.90;99.90
19755;DHT22;10036;47.812;9.274;2022-12-29T11:19:00;10.00;99.90
19755;DHT22;10036;47.812;9.274;2022-12-29T11:21:31;10.00;99.90
19755;DHT22;10036;47.812;9.274;2022-12-29T11:24:01;10.00;99.90
19755;DHT22;10036;47.812;9.274;2022-12-29T11:26:30;10.10;99.90
19755;DHT22;10036;47.812;9.274;2022-12-29T11:29:17;10.20;99.90
19755;DHT22;10036;47.812;9.274;2022-12-29T11:31:47;10.20;99.90
19755;DHT22;10036;47.812;9.274;2022-12-29T11:34:20;10.50;99.90
19755;DHT22;10036;47.812;9.274;2022-12-29T11:36:49;10.40;99.90
19755;DHT22;10036;47.812;9.274;2022-12-29T11:39:37;10.50;99.90
19755;DHT22;10036;47.812;9.274;2022-12-29T11:42:06;10.60;99.90
19755;DHT22;10036;47.812;9.274;2022-12-29T11:44:42;10.60;99.90
19755;DHT22;10036;47.812;9.274;2022-12-29T11:47:13;10.60;99.90
19755;DHT22;10036;47.812;9.274;2022-12-29T11:49:50;10.60;99.90
19755;DHT22;10036;47.812;9.274;2022-12-29T11:52:21;10.70;99.90
19755;DHT22;10036;47.812;9.274;2022-12-29T11:54:50;10.70;99.90
19755;DHT22;10036;47.812;9.274;2022-12-29T11:57:19;10.70;99.90
19755;DHT22;10036;47.812;9.274;2022-12-29T11:59:52;10.70;99.90
19755;DHT22;10036;47.812;9.274;2022-12-29T12:02:37;10.70;99.90
19755;DHT22;10036;47.812;9.274;2022-12-29T12:05:19;10.80;99.90
19755;DHT22;10036;47.812;9.274;2022-12-29T12:07:49;10.70;99.90
19755;DHT22;10036;47.812;9.274;2022-12-29T12:10:24;10.80;99.90
19755;DHT22;10036;47.812;9.274;2022-12-29T12:12:59;10.80;99.90
19755;DHT22;10036;47.812;9.274;2022-12-29T12:15:31;10.80;99.90
19755;DHT22;10036;47.812;9.274;2022-12-29T12:18:08;10.90;99.90
19755;DHT22;10036;47.812;9.274;2022-12-29T12:20:42;10.80;99.90
19755;DHT22;10036;47.812;9.274;2022-12-29T12:23:24;10.80;99.90
19755;DHT22;10036;47.812;9.274;2022-12-29T12:25:58;10.90;99.90
19755;DHT22;10036;47.812;9.274;2022-12-29T12:28:32;10.80;99.90
19755;DHT22;10036;47.812;9.274;2022-12-29T12:31:02;10.80;99.90
19755;DHT22;10036;47.812;9.274;2022-12-29T12:33:33;10.80;99.90
19755;DHT22;10036;47.812;9.274;2022-12-29T12:36:19;10.80;99.90
19755;DHT22;10036;47.812;9.274;2022-12-29T12:38:55;10.80;99.90
19755;DHT22;10036;47.812;9.274;2022-12-29T12:41:35;10.70;99.90
19755;DHT22;10036;47.812;9.274;2022-12-29T12:44:12;10.70;99.90
19755;DHT22;10036;47.812;9.274;2022-12-29T12:47:06;10.70;99.90
19755;DHT22;10036;47.812;9.274;2022-12-29T12:50:02;10.60;99.90
19755;DHT22;10036;47.812;9.274;2022-12-29T12:52:46;10.70;99.90
19755;DHT22;10036;47.812;9.274;2022-12-29T12:55:29;10.70;99.90
19755;DHT22;10036;47.812;9.274;2022-12-29T12:58:04;10.60;99.90
19755;DHT22;10036;47.812;9.274;2022-12-29T13:00:37;10.60;99.90
19755;DHT22;10036;47.812;9.274;2022-12-29T13:03:12;10.60;99.90
19755;DHT22;10036;47.812;9.274;2022-12-29T13:05:50;10.60;99.90
19755;DHT22;10036;47.812;9.274;2022-12-29T13:08:34;10.60;99.90
19755;DHT22;10036;47.812;9.274;2022-12-29T13:11:12;10.60;99.90
19755;DHT22;10036;47.812;9.274;2022-12-29T13:13:57;10.80;99.90
19755;DHT22;10036;47.812;9.274;2022-12-29T13:16:31;10.70;99.90
19755;DHT22;10036;47.812;9.274;2022-12-29T13:19:05;10.80;99.90
19755;DHT22;10036;47.812;9.274;2022-12-29T13:21:44;10.70;99.90
19755;DHT22;10036;47.812;9.274;2022-12-29T13:24:18;10.60;99.90
19755;DHT22;10036;47.812;9.274;2022-12-29T13:26:52;10.80;99.90
19755;DHT22;10036;47.812;9.274;2022-12-29T13:29:27;10.70;99.90
19755;DHT22;10036;47.812;9.274;2022-12-29T13:32:10;10.70;99.90
19755;DHT22;10036;47.812;9.274;2022-12-29T13:34:45;10.80;99.90
19755;DHT22;10036;47.812;9.274;2022-12-29T13:37:17;10.80;99.90
19755;DHT22;10036;47.812;9.274;2022-12-29T13:39:49;10.80;99.90
19755;DHT22;10036;47.812;9.274;2022-12-29T13:42:18;10.70;99.90
19755;DHT22;10036;47.812;9.274;2022-12-29T13:44:50;10.70;99.90
19755;DHT22;10036;47.812;9.274;2022-12-29T13:47:25;10.70;99.90
19755;DHT22;10036;47.812;9.274;2022-12-29T13:49:54;10.70;99.90
19755;DHT22;10036;47.812;9.274;2022-12-29T13:52:28;10.60;99.90
19755;DHT22;10036;47.812;9.274;2022-12-29T13:55:06;10.60;99.90
19755;DHT22;10036;47.812;9.274;2022-12-29T13:57:39;10.40;99.90
19755;DHT22;10036;47.812;9.274;2022-12-29T14:00:15;10.70;99.90
19755;DHT22;10036;47.812;9.274;2022-12-29T14:03:01;10.60;99.90
19755;DHT22;10036;47.812;9.274;2022-12-29T14:05:36;10.70;99.90
19755;DHT22;10036;47.812;9.274;2022-12-29T14:08:04;10.70;99.90
19755;DHT22;10036;47.812;9.274;2022-12-29T14:10:34;10.60;99.90
19755;DHT22;10036;47.812;9.274;2022-12-29T14:13:05;10.60;99.90
19755;DHT22;10036;47.812;9.274;2022-12-29T14:15:39;10.60;99.90
19755;DHT22;10036;47.812;9.274;2022-12-29T14:18:16;10.60;99.90
19755;DHT22;10036;47.812;9.274;2022-12-29T14:20:51;10.60;99.90
19755;DHT22;10036;47.812;9.274;2022-12-29T14:23:28;10.50;99.90
19755;DHT22;10036;47.812;9.274;2022-12-29T14:26:16;10.40;99.90
19755;DHT22;10036;47.812;9.274;2022-12-29T14:28:45;10.40;99.90
19755;DHT22;10036;47.812;9.274;2022-12-29T14:31:35;10.40;99.90
19755;DHT22;10036;47.812;9.274;2022-12-29T14:34:27;10.20;99.90
19755;DHT22;10036;47.812;9.274;2022-12-29T14:36:55;10.00;99.90
19755;DHT22;10036;47.812;9.274;2022-12-29T14:39:36;10.10;99.90
19755;DHT22;10036;47.812;9.274;2022-12-29T14:42:06;10.10;99.90
19755;DHT22;10036;47.812;9.274;2022-12-29T14:44:33;10.20;99.90
19755;DHT22;10036;47.812;9.274;2022-12-29T14:47:05;10.20;99.90
19755;DHT22;10036;47.812;9.274;2022-12-29T14:49:40;10.10;99.90
19755;DHT22;10036;47.812;9.274;2022-12-29T14:52:15;10.10;99.90
19755;DHT22;10036;47.812;9.274;2022-12-29T14:54:52;10.10;99.90
19755;DHT22;10036;47.812;9.274;2022-12-29T14:57:33;10.10;99.90
19755;DHT22;10036;47.812;9.274;2022-12-29T15:00:18;10.10;99.90
19755;DHT22;10036;47.812;9.274;2022-12-29T15:02:50;10.20;99.90
19755;DHT22;10036;47.812;9.274;2022-12-29T15:05:28;10.20;99.90
19755;DHT22;10036;47.812;9.274;2022-12-29T15:07:57;10.30;99.90
19755;DHT22;10036;47.812;9.274;2022-12-29T15:10:25;10.20;99.90
19755;DHT22;10036;47.812;9.274;2022-12-29T15:12:54;10.20;99.90
19755;DHT22;10036;47.812;9.274;2022-12-29T15:15:23;10.10;99.90
19755;DHT22;10036;47.812;9.274;2022-12-29T15:17:52;10.10;99.90
19755;DHT22;10036;47.812;9.274;2022-12-29T15:20:25;10.20;99.90
19755;DHT22;10036;47.812;9.274;2022-12-29T15:22:55;10.30;99.90
19755;DHT22;10036;47.812;9.274;2022-12-29T15:25:23;10.10;99.90
19755;DHT22;10036;47.812;9.274;2022-12-29T15:27:53;10.00;99.90
19755;DHT22;10036;47.812;9.274;2022-12-29T15:30:20;10.10;99.90
19755;DHT22;10036;47.812;9.274;2022-12-29T15:32:52;10.00;99.90
19755;DHT22;10036;47.812;9.274;2022-12-29T15:35:26;10.00;99.90
19755;DHT22;10036;47.812;9.274;2022-12-29T15:37:53;10.00;99.90
19755;DHT22;10036;47.812;9.274;2022-12-29T15:40:25;10.10;99.90
19755;DHT22;10036;47.812;9.274;2022-12-29T15:43:17;10.00;99.90
19755;DHT22;10036;47.812;9.274;2022-12-29T15:45:47;9.90;99.90
19755;DHT22;10036;47.812;9.274;2022-12-29T15:48:20;9.90;99.90
19755;DHT22;10036;47.812;9.274;2022-12-29T15:50:48;9.90;99.90
19755;DHT22;10036;47.812;9.274;2022-12-29T15:53:19;9.80;99.90
19755;DHT22;10036;47.812;9.274;2022-12-29T15:55:50;9.80;99.90
19755;DHT22;10036;47.812;9.274;2022-12-29T15:58:22;9.90;99.90
19755;DHT22;10036;47.812;9.274;2022-12-29T16:00:51;9.90;99.90
19755;DHT22;10036;47.812;9.274;2022-12-29T16:03:21;9.90;99.90
19755;DHT22;10036;47.812;9.274;2022-12-29T16:05:54;9.80;99.90
19755;DHT22;10036;47.812;9.274;2022-12-29T16:08:34;9.90;99.90
19755;DHT22;10036;47.812;9.274;2022-12-29T16:11:07;9.90;99.90
19755;DHT22;10036;47.812;9.274;2022-12-29T16:13:42;9.90;99.90
19755;DHT22;10036;47.812;9.274;2022-12-29T16:16:17;9.90;99.90